Etusivu
METAR-TAF:

METAR-TAF

Lentoasemat :

Lyndonville, Vermont, Yhdysvallat

Leveyspiiri: 44-34-09N, Pituuspiiri: 072-01-05W, korkeus merenpinnasta: 362 m

Tämänhetkinen sää

Tämä raportti tehtiin 27 minuuttia sitten, kello 23.35 UTC
Tuuli 8 kn lännestä/luoteesta
Lämpötila -4°C
Kosteus 80%
Ilmanpaine 1010 hPa
Näkyvyys: 16.1 km
Hajonneita pilviä 2500 ft:n korkeudessa
Pilvistä 3000 ft:n korkeudessa
tuntematon

METAR: KCDA 282335Z AUTO 30008KT 10SM UP BKN025 OVC030 M04/M07 A2983 RMK AO2 T10381070

Aika: 19:02 (00:02 UTC)


TAF: puuttuu

Säähavainnot ja -ennusteet yli 4000 lentoasemalta (METAR- ja TAF-raportit).

Käytössä olevat sääasemat on merkitty karttaan keltaisilla ja punaisilla pisteillä.

Aseta hiiri pisteen päälle nähdäksesi sääaseman nimen.

Klikkaa sitten nähdäksesi säähavainnot ja -ennusteet.

Kartan vaihtaminen: klikkaa mustalla rastilla varustettuja vihreitä pisteitä, niin voit zoomata sisään; viivalla varustettua vihreää pistettä, niin voit zoomata ulos tai vihreitä nuolia, niin pääset viereisille kartoille.


METAR-TAF: